Circle Line Brooklyn — WDE8160 — position and weather

sailwx.info

Track history (hours):
 
Tides and Currents Weather Stations Pressure Air Temp Water Temp Dewpoint Dewpoint Depression Visibility Wind Speed Wind Dir Waves Ship Positions

Circle Line Brooklyn

Owner: Circle Line Sight Seeing Yachts Inc., New York, NY. More information available from US FCC via Universal Licensing System and Coast Guard Vessel Documentation Center.

Last reported at 2016-Aug-26 20:27 UTC. Time now 2016-Aug-27 09:52 UTC.
Position N 40°46' W 074°00'.

MMSI: 367402250.

Date/timePositionNaut miles runAvg speedWind from/ knotsBaromVisibWave heightAir tempDewpointWater temp
2016-Aug-26 20:27N 40°46' W 074°00'5 5.2
2016-Aug-26 19:33N 40°41' W 074°01'5 4.6
2016-Aug-26 18:33N 40°46' W 074°00'0 0.0
2016-Aug-26 17:31N 40°46' W 074°00'0 0.0
2016-Aug-26 16:31N 40°46' W 074°00'0 0.0
2016-Aug-26 15:31N 40°46' W 074°00'0 0.0
2016-Aug-26 14:31N 40°46' W 074°00'0 0.0
2016-Aug-26 13:31N 40°46' W 074°00'0 0.0
2016-Aug-26 01:32N 40°46' W 074°00'4 3.8
2016-Aug-26 00:34N 40°42' W 074°00'1 1.2
2016-Aug-25 23:34N 40°42' W 074°02'4 3.4
2016-Aug-25 22:29N 40°46' W 074°00'0 0.0
2016-Aug-25 21:32N 40°46' W 074°00'0 0.0
2016-Aug-25 20:33N 40°46' W 074°00'2 2.0
2016-Aug-25 19:33N 40°44' W 073°58'4 4.4
2016-Aug-25 18:33N 40°41' W 074°02'5 4.7
2016-Aug-25 17:33N 40°46' W 074°00'0 0.0
2016-Aug-25 16:33N 40°46' W 074°00'2 1.4
2016-Aug-25 15:04N 40°45' W 073°57'611.6
2016-Aug-25 14:33N 40°41' W 074°03'5 4.7
2016-Aug-25 13:29N 40°46' W 074°00'0 0.0
2016-Aug-25 12:32N 40°46' W 074°00'0 0.0
2016-Aug-23 20:34N 40°46' W 074°00'2 1.6
2016-Aug-23 19:10N 40°46' W 073°57'6 9.8
2016-Aug-23 18:33N 40°41' W 074°03'5 4.5
2016-Aug-23 17:28N 40°46' W 074°00'0 0.2
2016-Aug-23 16:33N 40°46' W 074°00'2 1.6
2016-Aug-23 15:04N 40°46' W 073°57'611.8
2016-Aug-23 14:33N 40°41' W 074°03'5 4.8
2016-Aug-23 13:31N 40°46' W 074°00'0 0.0
2016-Aug-22 20:29N 40°45' W 074°01'4 4.7
2016-Aug-22 19:33N 40°41' W 074°02'3 1.3
2016-Aug-22 17:33N 40°43' W 073°59'3 1.3
2016-Aug-22 15:26N 40°45' W 074°01'2 0.2
2016-Aug-22 00:34N 40°43' W 074°02'2 1.7
2016-Aug-21 23:34N 40°42' W 073°60'2 0.6
2016-Aug-21 20:22N 40°44' W 074°01'1 0.7
2016-Aug-21 18:07N 40°46' W 074°01'2 3.7
2016-Aug-21 17:34N 40°45' W 073°58'5 5.0
2016-Aug-21 16:33N 40°41' W 074°03'5 0.2
2016-Aug-20 20:32N 40°46' W 074°00'2 0.7
2016-Aug-20 17:13N 40°46' W 073°57'6 9.2
2016-Aug-20 16:33N 40°41' W 074°03'5 0.2
2016-Aug-19 20:17N 40°45' W 074°01'4 5.6
2016-Aug-19 19:33N 40°41' W 074°00'4 3.1
2016-Aug-19 18:10N 40°46' W 074°00'0 0.0
2016-Aug-19 17:31N 40°46' W 074°00'3 3.1
2016-Aug-19 16:34N 40°43' W 074°01'2 2.0
2016-Aug-19 15:34N 40°41' W 074°03'5 4.8
2016-Aug-19 14:31N 40°46' W 074°00'0 0.0
2016-Aug-19 01:07N 40°46' W 074°00'3 6.3
2016-Aug-19 00:33N 40°43' W 074°02'2 1.9
2016-Aug-18 23:33N 40°42' W 073°59'3 3.3
2016-Aug-18 22:31N 40°46' W 074°00'4 3.7
2016-Aug-18 21:33N 40°42' W 073°60'4 3.5
2016-Aug-18 20:33N 40°46' W 074°00'0 0.0
2016-Aug-18 19:33N 40°46' W 074°00'0 0.0
2016-Aug-18 18:33N 40°46' W 074°00'2 1.6
2016-Aug-18 17:14N 40°45' W 073°57'6 8.9
2016-Aug-18 16:34N 40°41' W 074°03'5 4.7
2016-Aug-18 15:29N 40°46' W 074°00'  
Track history (hours):
 
Tides and Currents Weather Stations Pressure Air Temp Water Temp Dewpoint Dewpoint Depression Visibility Wind Speed Wind Dir Waves Ship Positions

Circle Line Brooklyn

Owner: Circle Line Sight Seeing Yachts Inc., New York, NY. More information available from US FCC via Universal Licensing System and Coast Guard Vessel Documentation Center.

Last reported at 2016-Aug-26 20:27 UTC. Time now 2016-Aug-27 09:52 UTC.
Position N 40°46' W 074°00'.

MMSI: 367402250.

Date/timePositionNaut miles runAvg speedWind from/ knotsBaromVisibWave heightAir tempDewpointWater temp
2016-Aug-26 20:27N 40°46' W 074°00'5 5.2
2016-Aug-26 19:33N 40°41' W 074°01'5 4.6
2016-Aug-26 18:33N 40°46' W 074°00'0 0.0
2016-Aug-26 17:31N 40°46' W 074°00'0 0.0
2016-Aug-26 16:31N 40°46' W 074°00'0 0.0
2016-Aug-26 15:31N 40°46' W 074°00'0 0.0
2016-Aug-26 14:31N 40°46' W 074°00'0 0.0
2016-Aug-26 13:31N 40°46' W 074°00'0 0.0
2016-Aug-26 01:32N 40°46' W 074°00'4 3.8
2016-Aug-26 00:34N 40°42' W 074°00'1 1.2
2016-Aug-25 23:34N 40°42' W 074°02'4 3.4
2016-Aug-25 22:29N 40°46' W 074°00'0 0.0
2016-Aug-25 21:32N 40°46' W 074°00'0 0.0
2016-Aug-25 20:33N 40°46' W 074°00'2 2.0
2016-Aug-25 19:33N 40°44' W 073°58'4 4.4
2016-Aug-25 18:33N 40°41' W 074°02'5 4.7
2016-Aug-25 17:33N 40°46' W 074°00'0 0.0
2016-Aug-25 16:33N 40°46' W 074°00'2 1.4
2016-Aug-25 15:04N 40°45' W 073°57'611.6
2016-Aug-25 14:33N 40°41' W 074°03'5 4.7
2016-Aug-25 13:29N 40°46' W 074°00'0 0.0
2016-Aug-25 12:32N 40°46' W 074°00'0 0.0
2016-Aug-23 20:34N 40°46' W 074°00'2 1.6
2016-Aug-23 19:10N 40°46' W 073°57'6 9.8
2016-Aug-23 18:33N 40°41' W 074°03'5 4.5
2016-Aug-23 17:28N 40°46' W 074°00'0 0.2
2016-Aug-23 16:33N 40°46' W 074°00'2 1.6
2016-Aug-23 15:04N 40°46' W 073°57'611.8
2016-Aug-23 14:33N 40°41' W 074°03'5 4.8
2016-Aug-23 13:31N 40°46' W 074°00'0 0.0
2016-Aug-22 20:29N 40°45' W 074°01'4 4.7
2016-Aug-22 19:33N 40°41' W 074°02'3 1.3
2016-Aug-22 17:33N 40°43' W 073°59'3 1.3
2016-Aug-22 15:26N 40°45' W 074°01'2 0.2
2016-Aug-22 00:34N 40°43' W 074°02'2 1.7
2016-Aug-21 23:34N 40°42' W 073°60'2 0.6
2016-Aug-21 20:22N 40°44' W 074°01'1 0.7
2016-Aug-21 18:07N 40°46' W 074°01'2 3.7
2016-Aug-21 17:34N 40°45' W 073°58'5 5.0
2016-Aug-21 16:33N 40°41' W 074°03'5 0.2
2016-Aug-20 20:32N 40°46' W 074°00'2 0.7
2016-Aug-20 17:13N 40°46' W 073°57'6 9.2
2016-Aug-20 16:33N 40°41' W 074°03'5 0.2
2016-Aug-19 20:17N 40°45' W 074°01'4 5.6
2016-Aug-19 19:33N 40°41' W 074°00'4 3.1
2016-Aug-19 18:10N 40°46' W 074°00'0 0.0
2016-Aug-19 17:31N 40°46' W 074°00'3 3.1
2016-Aug-19 16:34N 40°43' W 074°01'2 2.0
2016-Aug-19 15:34N 40°41' W 074°03'5 4.8
2016-Aug-19 14:31N 40°46' W 074°00'0 0.0
2016-Aug-19 01:07N 40°46' W 074°00'3 6.3
2016-Aug-19 00:33N 40°43' W 074°02'2 1.9
2016-Aug-18 23:33N 40°42' W 073°59'3 3.3
2016-Aug-18 22:31N 40°46' W 074°00'4 3.7
2016-Aug-18 21:33N 40°42' W 073°60'4 3.5
2016-Aug-18 20:33N 40°46' W 074°00'0 0.0
2016-Aug-18 19:33N 40°46' W 074°00'0 0.0
2016-Aug-18 18:33N 40°46' W 074°00'2 1.6
2016-Aug-18 17:14N 40°45' W 073°57'6 8.9
2016-Aug-18 16:34N 40°41' W 074°03'5 4.7
2016-Aug-18 15:29N 40°46' W 074°00'  

Dump ship's entire track history